Solberg-Hunterdon (N51)
Readington, NJ
Field Elevation: 195
Lat: 40°34.98N  Long: 74°44.20W
CTAF/Unicom Freq: 122.8000
   
     For Weather-by-Phone, call 908 534 4979
Weather Advisories
2022-01-29   07:53 Z
Altimeter 29.87" Hg
Wind 030° @ 13 KT
Gusts 19 KT
Visibility 1/2 SM
Ceiling VV012
Temperature -4° C (25° F)
Dewpoint -6° C (21° F)
Relative Humidity 90%
Density Altitude --
Condensation Altitude --
Wind Chill: -11° C (12° F)
Wind and Runways
Indicated Runway = 04
Headwind = 13 kt
Crosswind = 2 kt
History
 
 
 
More Info
All DigiWx sites map
NOAA Forecast
 
Airport IQ 5010
(4N1) Greenwood Lake, NJ
(N40) Sky Manor, NJ
 
about DigiWx
 
FAA Disclaimer: The data displayed is for advisory purposes only and is not to be used for flight planning or operations. For official data, please call 908 534 4979 to hear the current automated AWOS voice message.
  METAR N51 290753Z AUTO 03013G19KT 1/2 SM VV012 M04/M06 A2987